sensor_id;sensor_type;location;lat;lon;timestamp;pressure;altitude;pressure_sealevel;temperature;humidity
78317;BME280;67572;50.930;18.276;2023-02-15T00:00:11;100751.03;;;1.93;73.60
78317;BME280;67572;50.930;18.276;2023-02-15T00:00:19;100742.31;;;1.91;74.17
78317;BME280;67572;50.930;18.276;2023-02-15T00:00:26;100744.06;;;1.89;73.86
78317;BME280;67572;50.930;18.276;2023-02-15T00:00:33;100749.34;;;1.85;74.05
78317;BME280;67572;50.930;18.276;2023-02-15T00:00:40;100749.34;;;1.85;73.90
78317;BME280;67572;50.930;18.276;2023-02-15T00:00:47;100746.69;;;1.86;73.78
78317;BME280;67572;50.930;18.276;2023-02-15T00:00:54;100744.06;;;1.88;73.90
78317;BME280;67572;50.930;18.276;2023-02-15T00:01:05;100746.69;;;1.91;73.99
78317;BME280;67572;50.930;18.276;2023-02-15T00:01:12;100743.13;;;1.95;73.54
78317;BME280;67572;50.930;18.276;2023-02-15T00:01:19;100744.06;;;1.91;74.18
78317;BME280;67572;50.930;18.276;2023-02-15T00:01:27;100749.31;;;1.88;74.23
78317;BME280;67572;50.930;18.276;2023-02-15T00:01:35;100746.69;;;1.88;74.00
78317;BME280;67572;50.930;18.276;2023-02-15T00:01:47;100746.69;;;1.89;74.18
78317;BME280;67572;50.930;18.276;2023-02-15T00:01:55;100752.81;;;1.87;74.36
78317;BME280;67572;50.930;18.276;2023-02-15T00:02:02;100750.25;;;1.82;74.16
78317;BME280;67572;50.930;18.276;2023-02-15T00:02:09;100749.41;;;1.77;74.21
78317;BME280;67572;50.930;18.276;2023-02-15T00:02:17;100753.72;;;1.84;74.57
78317;BME280;67572;50.930;18.276;2023-02-15T00:02:26;100753.72;;;1.84;74.67
78317;BME280;67572;50.930;18.276;2023-02-15T00:02:33;100753.72;;;1.84;74.24
78317;BME280;67572;50.930;18.276;2023-02-15T00:02:40;100746.75;;;1.80;74.36
78317;BME280;67572;50.930;18.276;2023-02-15T00:02:47;100749.38;;;1.82;74.54
78317;BME280;67572;50.930;18.276;2023-02-15T00:02:55;100748.44;;;1.86;74.79
78317;BME280;67572;50.930;18.276;2023-02-15T00:03:03;100744.13;;;1.82;74.14
78317;BME280;67572;50.930;18.276;2023-02-15T00:03:10;100751.97;;;1.85;74.28
78317;BME280;67572;50.930;18.276;2023-02-15T00:03:17;100753.69;;;1.86;74.36
78317;BME280;67572;50.930;18.276;2023-02-15T00:03:24;100743.22;;;1.84;74.36
78317;BME280;67572;50.930;18.276;2023-02-15T00:03:36;100743.22;;;1.86;74.48
78317;BME280;67572;50.930;18.276;2023-02-15T00:03:44;100744.94;;;1.90;73.97
78317;BME280;67572;50.930;18.276;2023-02-15T00:03:51;100745.72;;;2.04;74.02
78317;BME280;67572;50.930;18.276;2023-02-15T00:03:58;100747.38;;;2.11;74.18
78317;BME280;67572;50.930;18.276;2023-02-15T00:04:06;100743.00;;;2.13;74.18
78317;BME280;67572;50.930;18.276;2023-02-15T00:04:19;100751.66;;;2.23;73.91
78317;BME280;67572;50.930;18.276;2023-02-15T00:04:26;100747.28;;;2.23;73.89
78317;BME280;67572;50.930;18.276;2023-02-15T00:04:54;100745.56;;;2.21;73.57
78317;BME280;67572;50.930;18.276;2023-02-15T00:05:03;100742.94;;;2.21;73.71
78317;BME280;67572;50.930;18.276;2023-02-15T00:05:10;100749.00;;;2.26;73.49
78317;BME280;67572;50.930;18.276;2023-02-15T00:05:18;100748.13;;;2.24;73.43
78317;BME280;67572;50.930;18.276;2023-02-15T00:05:25;100743.81;;;2.21;73.60
78317;BME280;67572;50.930;18.276;2023-02-15T00:05:32;100748.19;;;2.19;73.46
78317;BME280;67572;50.930;18.276;2023-02-15T00:05:39;100740.41;;;2.12;73.54
78317;BME280;67572;50.930;18.276;2023-02-15T00:05:46;100752.59;;;2.14;73.48
78317;BME280;67572;50.930;18.276;2023-02-15T00:05:56;100745.63;;;2.13;73.25
78317;BME280;67572;50.930;18.276;2023-02-15T00:06:03;100748.19;;;2.18;73.53
78317;BME280;67572;50.930;18.276;2023-02-15T00:06:11;100741.19;;;2.17;73.15
78317;BME280;67572;50.930;18.276;2023-02-15T00:06:19;100749.06;;;2.21;73.75
78317;BME280;67572;50.930;18.276;2023-02-15T00:06:26;100749.88;;;2.25;73.48
78317;BME280;67572;50.930;18.276;2023-02-15T00:06:38;100747.31;;;2.19;73.03
78317;BME280;67572;50.930;18.276;2023-02-15T00:06:46;100748.19;;;2.18;73.60
78317;BME280;67572;50.930;18.276;2023-02-15T00:06:53;100743.88;;;2.12;73.63
78317;BME280;67572;50.930;18.276;2023-02-15T00:07:00;100745.66;;;2.07;73.47
78317;BME280;67572;50.930;18.276;2023-02-15T00:07:07;100749.25;;;1.99;73.03
78317;BME280;67572;50.930;18.276;2023-02-15T00:07:15;100741.41;;;1.94;73.69
78317;BME280;67572;50.930;18.276;2023-02-15T00:07:22;100745.81;;;1.90;73.46
78317;BME280;67572;50.930;18.276;2023-02-15T00:07:30;100751.03;;;1.89;73.33
78317;BME280;67572;50.930;18.276;2023-02-15T00:07:37;100745.84;;;1.84;73.70
78317;BME280;67572;50.930;18.276;2023-02-15T00:07:45;100744.06;;;1.88;73.97
78317;BME280;67572;50.930;18.276;2023-02-15T00:07:58;100745.81;;;1.90;73.87
78317;BME280;67572;50.930;18.276;2023-02-15T00:08:05;100746.69;;;1.89;73.82
78317;BME280;67572;50.930;18.276;2023-02-15T00:08:12;100744.91;;;1.91;73.56
78317;BME280;67572;50.930;18.276;2023-02-15T00:08:19;100744.00;;;1.95;73.77
78317;BME280;67572;50.930;18.276;2023-02-15T00:08:26;100740.47;;;2.00;73.55
78317;BME280;67572;50.930;18.276;2023-02-15T00:08:34;100744.78;;;2.08;73.43
78317;BME280;67572;50.930;18.276;2023-02-15T00:08:41;100749.13;;;2.12;73.69
78317;BME280;67572;50.930;18.276;2023-02-15T00:08:49;100747.38;;;2.13;73.65
78317;BME280;67572;50.930;18.276;2023-02-15T00:08:56;100746.50;;;2.11;73.20
78317;BME280;67572;50.930;18.276;2023-02-15T00:09:08;100748.31;;;2.03;73.31
78317;BME280;67572;50.930;18.276;2023-02-15T00:09:17;100753.63;;;1.98;73.12
78317;BME280;67572;50.930;18.276;2023-02-15T00:09:24;100748.41;;;1.93;73.47
78317;BME280;67572;50.930;18.276;2023-02-15T00:09:32;100746.69;;;1.89;73.11
78317;BME280;67572;50.930;18.276;2023-02-15T00:09:39;100747.59;;;1.81;73.17
78317;BME280;67572;50.930;18.276;2023-02-15T00:09:47;100745.06;;;1.75;73.80
78317;BME280;67572;50.930;18.276;2023-02-15T00:09:54;100747.66;;;1.73;73.35
78317;BME280;67572;50.930;18.276;2023-02-15T00:10:07;100745.97;;;1.69;73.87
78317;BME280;67572;50.930;18.276;2023-02-15T00:10:14;100752.97;;;1.65;73.88
78317;BME280;67572;50.930;18.276;2023-02-15T00:10:22;100750.34;;;1.64;73.84
78317;BME280;67572;50.930;18.276;2023-02-15T00:10:30;100744.25;;;1.62;73.82
78317;BME280;67572;50.930;18.276;2023-02-15T00:10:37;100750.34;;;1.64;73.83
78317;BME280;67572;50.930;18.276;2023-02-15T00:10:45;100748.63;;;1.63;73.62
78317;BME280;67572;50.930;18.276;2023-02-15T00:11:05;100745.22;;;1.46;74.15
78317;BME280;67572;50.930;18.276;2023-02-15T00:11:13;100741.72;;;1.51;74.28
78317;BME280;67572;50.930;18.276;2023-02-15T00:11:20;100750.44;;;1.52;74.33
78317;BME280;67572;50.930;18.276;2023-02-15T00:11:47;100742.53;;;1.58;74.33
78317;BME280;67572;50.930;18.276;2023-02-15T00:11:57;100747.75;;;1.62;74.43
78317;BME280;67572;50.930;18.276;2023-02-15T00:12:04;100739.00;;;1.63;74.17
78317;BME280;67572;50.930;18.276;2023-02-15T00:12:11;100748.63;;;1.61;74.22
78317;BME280;67572;50.930;18.276;2023-02-15T00:12:20;100745.13;;;1.61;74.23
78317;BME280;67572;50.930;18.276;2023-02-15T00:12:28;100739.00;;;1.63;74.23
78317;BME280;67572;50.930;18.276;2023-02-15T00:12:35;100741.66;;;1.60;74.27
78317;BME280;67572;50.930;18.276;2023-02-15T00:12:43;100739.91;;;1.58;74.22
78317;BME280;67572;50.930;18.276;2023-02-15T00:12:51;100746.03;;;1.57;74.50
78317;BME280;67572;50.930;18.276;2023-02-15T00:12:59;100740.81;;;1.55;74.42
78317;BME280;67572;50.930;18.276;2023-02-15T00:13:07;100739.03;;;1.60;74.37
78317;BME280;67572;50.930;18.276;2023-02-15T00:13:14;100746.00;;;1.63;74.04
78317;BME280;67572;50.930;18.276;2023-02-15T00:13:21;100741.63;;;1.62;74.02
78317;BME280;67572;50.930;18.276;2023-02-15T00:13:29;100740.75;;;1.63;74.46
78317;BME280;67572;50.930;18.276;2023-02-15T00:13:36;100743.38;;;1.63;74.20
78317;BME280;67572;50.930;18.276;2023-02-15T00:13:45;100737.25;;;1.64;74.51
78317;BME280;67572;50.930;18.276;2023-02-15T00:13:58;100738.13;;;1.58;74.39
78317;BME280;67572;50.930;18.276;2023-02-15T00:14:07;100737.28;;;1.58;74.20
78317;BME280;67572;50.930;18.276;2023-02-15T00:14:15;100743.44;;;1.54;74.44
78317;BME280;67572;50.930;18.276;2023-02-15T00:14:23;100734.69;;;1.50;74.52
78317;BME280;67572;50.930;18.276;2023-02-15T00:14:31;100741.69;;;1.54;74.28
78317;BME280;67572;50.930;18.276;2023-02-15T00:14:38;100742.56;;;1.50;74.18
78317;BME280;67572;50.930;18.276;2023-02-15T00:14:45;100737.31;;;1.50;74.57
78317;BME280;67572;50.930;18.276;2023-02-15T00:14:57;100742.63;;;1.46;74.77
78317;BME280;67572;50.930;18.276;2023-02-15T00:15:05;100744.38;;;1.45;74.65
78317;BME280;67572;50.930;18.276;2023-02-15T00:15:12;100743.53;;;1.37;74.77
78317;BME280;67572;50.930;18.276;2023-02-15T00:15:19;100740.03;;;1.38;74.78
78317;BME280;67572;50.930;18.276;2023-02-15T00:15:28;100744.38;;;1.36;74.81
78317;BME280;67572;50.930;18.276;2023-02-15T00:15:35;100740.91;;;1.35;75.19
78317;BME280;67572;50.930;18.276;2023-02-15T00:15:47;100739.16;;;1.36;74.93
78317;BME280;67572;50.930;18.276;2023-02-15T00:15:59;100740.06;;;1.36;74.96
78317;BME280;67572;50.930;18.276;2023-02-15T00:16:08;100742.63;;;1.39;74.93
78317;BME280;67572;50.930;18.276;2023-02-15T00:16:15;100740.03;;;1.38;74.60
78317;BME280;67572;50.930;18.276;2023-02-15T00:16:22;100745.25;;;1.41;75.20
78317;BME280;67572;50.930;18.276;2023-02-15T00:16:30;100745.19;;;1.50;74.76
78317;BME280;67572;50.930;18.276;2023-02-15T00:16:38;100737.31;;;1.55;75.16
78317;BME280;67572;50.930;18.276;2023-02-15T00:16:46;100746.88;;;1.62;75.22
78317;BME280;67572;50.930;18.276;2023-02-15T00:16:59;100739.88;;;1.64;74.89
78317;BME280;67572;50.930;18.276;2023-02-15T00:17:07;100744.22;;;1.68;74.43
78317;BME280;67572;50.930;18.276;2023-02-15T00:17:14;100739.81;;;1.72;75.08
78317;BME280;67572;50.930;18.276;2023-02-15T00:17:21;100736.28;;;1.77;74.51
78317;BME280;67572;50.930;18.276;2023-02-15T00:17:28;100745.88;;;1.80;74.78
78317;BME280;67572;50.930;18.276;2023-02-15T00:17:35;100745.00;;;1.79;74.63
78317;BME280;67572;50.930;18.276;2023-02-15T00:17:47;100739.88;;;1.67;74.81
78317;BME280;67572;50.930;18.276;2023-02-15T00:17:54;100739.88;;;1.67;74.77
78317;BME280;67572;50.930;18.276;2023-02-15T00:18:03;100741.59;;;1.70;74.88
78317;BME280;67572;50.930;18.276;2023-02-15T00:18:10;100741.59;;;1.68;74.74
78317;BME280;67572;50.930;18.276;2023-02-15T00:18:18;100738.09;;;1.67;75.08
78317;BME280;67572;50.930;18.276;2023-02-15T00:18:25;100740.72;;;1.67;74.57
78317;BME280;67572;50.930;18.276;2023-02-15T00:18:37;100739.91;;;1.56;74.69
78317;BME280;67572;50.930;18.276;2023-02-15T00:18:45;100740.81;;;1.54;74.73
78317;BME280;67572;50.930;18.276;2023-02-15T00:18:52;100746.06;;;1.52;74.94
78317;BME280;67572;50.930;18.276;2023-02-15T00:18:59;100742.59;;;1.47;75.02
78317;BME280;67572;50.930;18.276;2023-02-15T00:19:09;100740.00;;;1.43;74.90
78317;BME280;67572;50.930;18.276;2023-02-15T00:19:17;100736.53;;;1.44;75.15
78317;BME280;67572;50.930;18.276;2023-02-15T00:19:24;100735.66;;;1.40;75.25
78317;BME280;67572;50.930;18.276;2023-02-15T00:19:31;100739.13;;;1.41;74.94
78317;BME280;67572;50.930;18.276;2023-02-15T00:19:39;100733.91;;;1.41;74.98
78317;BME280;67572;50.930;18.276;2023-02-15T00:19:47;100739.13;;;1.44;75.28
78317;BME280;67572;50.930;18.276;2023-02-15T00:19:56;100742.59;;;1.47;75.35
78317;BME280;67572;50.930;18.276;2023-02-15T00:20:04;100732.97;;;1.49;75.22
78317;BME280;67572;50.930;18.276;2023-02-15T00:20:12;100736.47;;;1.51;74.79
78317;BME280;67572;50.930;18.276;2023-02-15T00:20:19;100739.03;;;1.59;75.06
78317;BME280;67572;50.930;18.276;2023-02-15T00:20:26;100741.63;;;1.62;74.93
78317;BME280;67572;50.930;18.276;2023-02-15T00:20:38;100733.78;;;1.57;75.02
78317;BME280;67572;50.930;18.276;2023-02-15T00:20:45;100741.66;;;1.56;75.07
78317;BME280;67572;50.930;18.276;2023-02-15T00:20:52;100736.38;;;1.62;74.80
78317;BME280;67572;50.930;18.276;2023-02-15T00:21:02;100746.00;;;1.63;75.00
78317;BME280;67572;50.930;18.276;2023-02-15T00:21:10;100733.78;;;1.60;75.28
78317;BME280;67572;50.930;18.276;2023-02-15T00:21:17;100740.72;;;1.64;75.21
78317;BME280;67572;50.930;18.276;2023-02-15T00:21:24;100738.09;;;1.64;74.87
78317;BME280;67572;50.930;18.276;2023-02-15T00:21:31;100738.97;;;1.65;74.75
78317;BME280;67572;50.930;18.276;2023-02-15T00:21:40;100736.41;;;1.60;74.71
78317;BME280;67572;50.930;18.276;2023-02-15T00:21:47;100733.81;;;1.59;75.04
78317;BME280;67572;50.930;18.276;2023-02-15T00:21:55;100737.28;;;1.58;74.85
78317;BME280;67572;50.930;18.276;2023-02-15T00:22:07;100735.53;;;1.57;74.83
78317;BME280;67572;50.930;18.276;2023-02-15T00:22:15;100738.22;;;1.52;74.50
78317;BME280;67572;50.930;18.276;2023-02-15T00:22:22;100732.94;;;1.55;74.91
78317;BME280;67572;50.930;18.276;2023-02-15T00:22:29;100739.03;;;1.56;74.85
78317;BME280;67572;50.930;18.276;2023-02-15T00:22:36;100732.94;;;1.55;74.93
78317;BME280;67572;50.930;18.276;2023-02-15T00:22:45;100740.78;;;1.57;74.89
78317;BME280;67572;50.930;18.276;2023-02-15T00:22:52;100733.00;;;1.45;74.68
78317;BME280;67572;50.930;18.276;2023-02-15T00:22:59;100738.25;;;1.43;74.78
78317;BME280;67572;50.930;18.276;2023-02-15T00:23:06;100733.00;;;1.42;75.14
78317;BME280;67572;50.930;18.276;2023-02-15T00:23:18;100740.03;;;1.35;74.98
78317;BME280;67572;50.930;18.276;2023-02-15T00:23:26;100737.41;;;1.35;75.08
78317;BME280;67572;50.930;18.276;2023-02-15T00:23:33;100737.41;;;1.35;75.24
78317;BME280;67572;50.930;18.276;2023-02-15T00:23:40;100741.78;;;1.34;74.93
78317;BME280;67572;50.930;18.276;2023-02-15T00:23:47;100737.44;;;1.32;75.01
78317;BME280;67572;50.930;18.276;2023-02-15T00:23:54;100735.69;;;1.32;75.23
78317;BME280;67572;50.930;18.276;2023-02-15T00:24:07;100742.66;;;1.33;75.16
78317;BME280;67572;50.930;18.276;2023-02-15T00:24:16;100736.53;;;1.37;75.32
78317;BME280;67572;50.930;18.276;2023-02-15T00:24:23;100738.31;;;1.37;75.32
78317;BME280;67572;50.930;18.276;2023-02-15T00:24:31;100735.69;;;1.32;75.14
78317;BME280;67572;50.930;18.276;2023-02-15T00:24:38;100734.84;;;1.30;75.42
78317;BME280;67572;50.930;18.276;2023-02-15T00:24:45;100731.31;;;1.33;75.20
78317;BME280;67572;50.930;18.276;2023-02-15T00:24:52;100733.06;;;1.37;75.35
78317;BME280;67572;50.930;18.276;2023-02-15T00:24:59;100740.03;;;1.39;75.43
78317;BME280;67572;50.930;18.276;2023-02-15T00:25:06;100734.78;;;1.38;75.05
78317;BME280;67572;50.930;18.276;2023-02-15T00:25:13;100736.53;;;1.36;75.23
78317;BME280;67572;50.930;18.276;2023-02-15T00:25:20;100733.94;;;1.34;75.27
78317;BME280;67572;50.930;18.276;2023-02-15T00:25:27;100738.28;;;1.35;75.05
78317;BME280;67572;50.930;18.276;2023-02-15T00:25:34;100734.81;;;1.36;75.19
78317;BME280;67572;50.930;18.276;2023-02-15T00:25:46;100733.94;;;1.33;75.10
78317;BME280;67572;50.930;18.276;2023-02-15T00:26:02;100733.97;;;1.27;75.40
78317;BME280;67572;50.930;18.276;2023-02-15T00:26:10;100734.88;;;1.24;75.79
78317;BME280;67572;50.930;18.276;2023-02-15T00:26:20;100732.22;;;1.27;75.39
78317;BME280;67572;50.930;18.276;2023-02-15T00:26:27;100739.22;;;1.30;75.44
78317;BME280;67572;50.930;18.276;2023-02-15T00:26:35;100730.47;;;1.29;75.50
78317;BME280;67572;50.930;18.276;2023-02-15T00:26:42;100733.06;;;1.32;75.81
78317;BME280;67572;50.930;18.276;2023-02-15T00:26:50;100734.78;;;1.35;75.48
78317;BME280;67572;50.930;18.276;2023-02-15T00:26:57;100732.19;;;1.38;75.67
78317;BME280;67572;50.930;18.276;2023-02-15T00:27:04;100733.03;;;1.38;75.59
78317;BME280;67572;50.930;18.276;2023-02-15T00:27:18;100730.44;;;1.32;75.17
78317;BME280;67572;50.930;18.276;2023-02-15T00:27:26;100738.28;;;1.35;75.74
78317;BME280;67572;50.930;18.276;2023-02-15T00:27:34;100732.19;;;1.32;75.32
78317;BME280;67572;50.930;18.276;2023-02-15T00:27:41;100733.94;;;1.34;75.61
78317;BME280;67572;50.930;18.276;2023-02-15T00:27:49;100730.44;;;1.37;75.25
78317;BME280;67572;50.930;18.276;2023-02-15T00:27:56;100731.28;;;1.41;75.31
78317;BME280;67572;50.930;18.276;2023-02-15T00:28:08;100729.53;;;1.44;75.25
78317;BME280;67572;50.930;18.276;2023-02-15T00:28:15;100726.91;;;1.39;75.26
78317;BME280;67572;50.930;18.276;2023-02-15T00:28:22;100727.81;;;1.34;75.19
78317;BME280;67572;50.930;18.276;2023-02-15T00:28:30;100732.19;;;1.38;75.28
78317;BME280;67572;50.930;18.276;2023-02-15T00:28:38;100733.00;;;1.42;75.24
78317;BME280;67572;50.930;18.276;2023-02-15T00:28:45;100725.19;;;1.37;75.17
78317;BME280;67572;50.930;18.276;2023-02-15T00:28:58;100733.03;;;1.35;74.92
78317;BME280;67572;50.930;18.276;2023-02-15T00:29:06;100734.81;;;1.36;75.15
78317;BME280;67572;50.930;18.276;2023-02-15T00:29:15;100728.72;;;1.27;75.58
78317;BME280;67572;50.930;18.276;2023-02-15T00:29:23;100732.22;;;1.26;75.16
78317;BME280;67572;50.930;18.276;2023-02-15T00:29:30;100726.97;;;1.27;75.27
78317;BME280;67572;50.930;18.276;2023-02-15T00:29:37;100727.84;;;1.26;75.56
78317;BME280;67572;50.930;18.276;2023-02-15T00:29:46;100727.88;;;1.29;75.67
78317;BME280;67572;50.930;18.276;2023-02-15T00:29:58;100725.25;;;1.29;75.25
78317;BME280;67572;50.930;18.276;2023-02-15T00:30:06;100727.84;;;1.28;75.46
78317;BME280;67572;50.930;18.276;2023-02-15T00:30:13;100727.88;;;1.25;75.46
78317;BME280;67572;50.930;18.276;2023-02-15T00:30:20;100721.78;;;1.23;75.63
78317;BME280;67572;50.930;18.276;2023-02-15T00:30:29;100727.06;;;1.15;75.41
78317;BME280;67572;50.930;18.276;2023-02-15T00:30:36;100727.06;;;1.12;75.77
78317;BME280;67572;50.930;18.276;2023-02-15T00:30:44;100721.81;;;1.17;75.63
78317;BME280;67572;50.930;18.276;2023-02-15T00:31:01;100723.56;;;1.11;75.42
78317;BME280;67572;50.930;18.276;2023-02-15T00:31:09;100727.06;;;1.09;75.69
78317;BME280;67572;50.930;18.276;2023-02-15T00:31:17;100722.72;;;1.09;75.46
78317;BME280;67572;50.930;18.276;2023-02-15T00:31:24;100727.97;;;1.06;75.65
78317;BME280;67572;50.930;18.276;2023-02-15T00:31:32;100719.25;;;1.03;75.63
78317;BME280;67572;50.930;18.276;2023-02-15T00:31:41;100727.09;;;1.04;75.79
78317;BME280;67572;50.930;18.276;2023-02-15T00:31:49;100724.44;;;1.10;75.94
78317;BME280;67572;50.930;18.276;2023-02-15T00:31:56;100722.69;;;1.11;75.87
78317;BME280;67572;50.930;18.276;2023-02-15T00:32:04;100728.81;;;1.10;76.05
78317;BME280;67572;50.930;18.276;2023-02-15T00:32:17;100722.72;;;1.09;76.29
78317;BME280;67572;50.930;18.276;2023-02-15T00:32:26;100715.69;;;1.13;76.32
78317;BME280;67572;50.930;18.276;2023-02-15T00:32:33;100720.91;;;1.18;76.14
78317;BME280;67572;50.930;18.276;2023-02-15T00:32:41;100719.16;;;1.20;75.95
78317;BME280;67572;50.930;18.276;2023-02-15T00:32:48;100720.88;;;1.21;75.61
78317;BME280;67572;50.930;18.276;2023-02-15T00:32:55;100719.16;;;1.18;75.71
78317;BME280;67572;50.930;18.276;2023-02-15T00:33:07;100723.53;;;1.13;75.63
78317;BME280;67572;50.930;18.276;2023-02-15T00:33:15;100717.44;;;1.17;75.61
78317;BME280;67572;50.930;18.276;2023-02-15T00:33:23;100718.28;;;1.24;75.56
78317;BME280;67572;50.930;18.276;2023-02-15T00:33:32;100719.97;;;1.28;75.76
78317;BME280;67572;50.930;18.276;2023-02-15T00:33:40;100717.34;;;1.32;75.43
78317;BME280;67572;50.930;18.276;2023-02-15T00:33:47;100719.09;;;1.36;75.03
78317;BME280;67572;50.930;18.276;2023-02-15T00:33:54;100715.59;;;1.37;75.19
78317;BME280;67572;50.930;18.276;2023-02-15T00:34:02;100717.28;;;1.45;75.39
78317;BME280;67572;50.930;18.276;2023-02-15T00:34:10;100715.50;;;1.47;75.33
78317;BME280;67572;50.930;18.276;2023-02-15T00:34:20;100719.03;;;1.46;75.18
78317;BME280;67572;50.930;18.276;2023-02-15T00:34:27;100713.81;;;1.38;75.18
78317;BME280;67572;50.930;18.276;2023-02-15T00:34:36;100714.75;;;1.29;75.23
78317;BME280;67572;50.930;18.276;2023-02-15T00:34:45;100715.66;;;1.22;75.08
78317;BME280;67572;50.930;18.276;2023-02-15T00:34:58;100720.03;;;1.19;75.29
78317;BME280;67572;50.930;18.276;2023-02-15T00:35:07;100717.44;;;1.16;75.23
78317;BME280;67572;50.930;18.276;2023-02-15T00:35:14;100714.88;;;1.08;74.90
78317;BME280;67572;50.930;18.276;2023-02-15T00:35:21;100711.38;;;1.07;75.12
78317;BME280;67572;50.930;18.276;2023-02-15T00:35:28;100719.25;;;1.06;75.23
78317;BME280;67572;50.930;18.276;2023-02-15T00:35:36;100716.56;;;1.15;75.48
78317;BME280;67572;50.930;18.276;2023-02-15T00:35:48;100717.44;;;1.17;75.47
78317;BME280;67572;50.930;18.276;2023-02-15T00:36:02;100715.72;;;1.11;75.26
78317;BME280;67572;50.930;18.276;2023-02-15T00:36:11;100721.81;;;1.12;75.34
78317;BME280;67572;50.930;18.276;2023-02-15T00:36:18;100713.13;;;1.07;75.36
78317;BME280;67572;50.930;18.276;2023-02-15T00:36:27;100711.38;;;1.07;75.36
78317;BME280;67572;50.930;18.276;2023-02-15T00:36:34;100717.47;;;1.09;75.39
78317;BME280;67572;50.930;18.276;2023-02-15T00:36:42;100715.69;;;1.18;75.32
78317;BME280;67572;50.930;18.276;2023-02-15T00:36:49;100713.94;;;1.21;75.13
78317;BME280;67572;50.930;18.276;2023-02-15T00:36:56;100717.41;;;1.22;75.16
78317;BME280;67572;50.930;18.276;2023-02-15T00:37:08;100713.94;;;1.18;75.34
78317;BME280;67572;50.930;18.276;2023-02-15T00:37:16;100716.56;;;1.21;75.31
78317;BME280;67572;50.930;18.276;2023-02-15T00:37:26;100713.00;;;1.27;75.13
78317;BME280;67572;50.930;18.276;2023-02-15T00:37:33;100722.63;;;1.29;75.21
78317;BME280;67572;50.930;18.276;2023-02-15T00:37:42;100719.13;;;1.24;74.71
78317;BME280;67572;50.930;18.276;2023-02-15T00:37:49;100720.03;;;1.19;75.15
78317;BME280;67572;50.930;18.276;2023-02-15T00:37:56;100718.31;;;1.16;75.18
78317;BME280;67572;50.930;18.276;2023-02-15T00:38:09;100715.72;;;1.10;75.30
78317;BME280;67572;50.930;18.276;2023-02-15T00:38:16;100714.00;;;1.07;75.02
78317;BME280;67572;50.930;18.276;2023-02-15T00:38:23;100712.25;;;1.03;74.92
78317;BME280;67572;50.930;18.276;2023-02-15T00:38:31;100722.72;;;1.03;75.24
78317;BME280;67572;50.930;18.276;2023-02-15T00:38:38;100714.84;;;1.09;74.96
78317;BME280;67572;50.930;18.276;2023-02-15T00:38:45;100716.63;;;1.01;75.16
78317;BME280;67572;50.930;18.276;2023-02-15T00:38:57;100711.44;;;0.91;75.74
78317;BME280;67572;50.930;18.276;2023-02-15T00:39:05;100714.03;;;0.95;75.71
78317;BME280;67572;50.930;18.276;2023-02-15T00:39:15;100711.38;;;1.03;75.71
78317;BME280;67572;50.930;18.276;2023-02-15T00:39:23;100710.50;;;1.07;75.79
78317;BME280;67572;50.930;18.276;2023-02-15T00:39:31;100713.13;;;1.07;75.76
78317;BME280;67572;50.930;18.276;2023-02-15T00:39:38;100714.00;;;1.04;75.96
78317;BME280;67572;50.930;18.276;2023-02-15T00:39:45;100716.63;;;1.01;75.72
78317;BME280;67572;50.930;18.276;2023-02-15T00:39:57;100717.53;;;0.90;75.63
78317;BME280;67572;50.930;18.276;2023-02-15T00:40:04;100707.06;;;0.90;75.91
78317;BME280;67572;50.930;18.276;2023-02-15T00:40:12;100712.31;;;0.88;75.76
78317;BME280;67572;50.930;18.276;2023-02-15T00:40:19;100715.81;;;0.92;75.80
78317;BME280;67572;50.930;18.276;2023-02-15T00:40:27;100716.69;;;0.92;75.64
78317;BME280;67572;50.930;18.276;2023-02-15T00:40:34;100717.56;;;0.88;75.50
78317;BME280;67572;50.930;18.276;2023-02-15T00:40:41;100710.56;;;0.90;75.87
78317;BME280;67572;50.930;18.276;2023-02-15T00:40:51;100707.94;;;0.93;75.64
78317;BME280;67572;50.930;18.276;2023-02-15T00:40:59;100709.69;;;0.93;75.59
78317;BME280;67572;50.930;18.276;2023-02-15T00:41:06;100713.19;;;0.89;75.70
78317;BME280;67572;50.930;18.276;2023-02-15T00:41:14;100717.56;;;0.88;75.71
78317;BME280;67572;50.930;18.276;2023-02-15T00:41:21;100709.69;;;0.93;75.81
78317;BME280;67572;50.930;18.276;2023-02-15T00:41:28;100709.69;;;0.90;75.85
78317;BME280;67572;50.930;18.276;2023-02-15T00:41:35;100716.69;;;0.88;75.93
78317;BME280;67572;50.930;18.276;2023-02-15T00:41:47;100711.47;;;0.81;75.97
78317;BME280;67572;50.930;18.276;2023-02-15T00:41:54;100716.69;;;0.83;75.98
78317;BME280;67572;50.930;18.276;2023-02-15T00:42:02;100709.72;;;0.80;75.98
78317;BME280;67572;50.930;18.276;2023-02-15T00:42:09;100715.81;;;0.82;76.00
78317;BME280;67572;50.930;18.276;2023-02-15T00:42:17;100708.81;;;0.91;75.99
78317;BME280;67572;50.930;18.276;2023-02-15T00:42:24;100709.69;;;0.94;75.95
78317;BME280;67572;50.930;18.276;2023-02-15T00:42:36;100713.16;;;0.95;75.96
78317;BME280;67572;50.930;18.276;2023-02-15T00:42:43;100714.06;;;0.92;75.89
78317;BME280;67572;50.930;18.276;2023-02-15T00:42:50;100712.31;;;0.93;76.07
78317;BME280;67572;50.930;18.276;2023-02-15T00:42:57;100707.94;;;0.95;76.04
78317;BME280;67572;50.930;18.276;2023-02-15T00:43:05;100713.16;;;0.98;75.82
78317;BME280;67572;50.930;18.276;2023-02-15T00:43:13;100711.41;;;1.00;75.98
78317;BME280;67572;50.930;18.276;2023-02-15T00:43:21;100717.53;;;0.96;75.74
78317;BME280;67572;50.930;18.276;2023-02-15T00:43:29;100713.16;;;0.95;75.41
78317;BME280;67572;50.930;18.276;2023-02-15T00:43:36;100707.06;;;0.99;75.94
78317;BME280;67572;50.930;18.276;2023-02-15T00:43:49;100709.66;;;1.00;75.62
78317;BME280;67572;50.930;18.276;2023-02-15T00:43:56;100712.28;;;0.99;75.89